Weldona, Colorado
Current Conditions -  °F | °C
As of 3:35 AM on Saturday 22 Nov 2014 (Local Time) from KFMM Reporting Station
Clear Clear  
Wind Chill: 19°   Ceiling: Unl
Heat Index: 28°   Visibility: 10mi
Dew Point: 21°   Wind: 9mph
Humidity: 77%   Direction: 270°W
Pressure: 29.87"   Gusts: NA
Location:  40.35°N, 103.97°W
Report Text: KFMM 221035Z AUTO 27008KT 10SM CLR M02/M06 A2987 RMK AO2 T10251060
Loading
Personal Weather Stations






























Interactive Weather Map New forecast layout! Learn more

10-Day Weather Forecast

Advertisements
Track Severe Weather on mobile